Weather History for Beatrice, NE

Change the Weather History Date:

Sunday, November 25, 2012

  Actual Average Record
Temperature  
Mean Temperature 38 °F -  
Max Temperature 49 °F 48 °F 72 °F (1960)
Min Temperature 27 °F 26 °F 8 °F (1950)
Degree Days  
Heating Degree Days 27    
Moisture  
Dew Point 24 °F    
Average Humidity 62    
Maximum Humidity 78    
Minimum Humidity 35    
Precipitation  
Precipitation 0.00 in - - ()
Sea Level Pressure  
Sea Level Pressure 29.98 in    
Wind  
Wind Speed 5 mph (NNE)    
Max Wind Speed 13 mph    
Max Gust Speed 18 mph    
Visibility 10 miles    
Events      
Averages and records for this station are not official NWS values.
T = Trace of Precipitation, MM = Missing Value Source: NWS Daily Summary

Daily Weather History Graph

Daily Weather History Graph

Search for Another Location

Airport:

Trip Planner

Search our weather history database for the weather conditions in past years. The results will help you decide how hot, cold, wet, or windy it might be!

Date:

Astronomy

Nov. 25, 2012 Rise Set
Actual Time 7:24 AM CST 5:03 PM CST
Civil Twilight 6:54 AM CST 5:33 PM CST
Nautical Twilight 6:21 AM CST 6:06 PM CST
Astronomical Twilight 5:48 AM CST 6:39 PM CST
Moon 3:21 PM CST (11/25) 4:39 AM CST (11/25)
Length of Visible Light 10h 38m
Length of Day
9h 38m
Waxing Gibbous, 93% of the Moon is Illuminated
Nov 25
Waxing Gibbous
Nov 28
Full
Dec 6
Last Quarter
Dec 13
New
Dec 19
First Quarter

Hourly Weather History & Observations

Time (CST) Temp. Windchill Dew Point Humidity Pressure Visibility Wind Dir Wind Speed Gust Speed Precip Events Conditions
12:15 AM 31.5 °F - 21.4 °F 66% 29.88 in 10.0 mi Calm Calm - N/A   Clear
12:35 AM 32.5 °F - 22.8 °F 67% 29.88 in 10.0 mi Calm Calm - N/A   Clear
12:55 AM 29.3 °F 25.6 °F 20.5 °F 70% 29.88 in 10.0 mi SSW 3.5 mph - N/A   Clear
1:15 AM 30.0 °F - 21.7 °F 71% 29.88 in 10.0 mi Calm Calm - N/A   Clear
1:35 AM 30.7 °F - 22.3 °F 71% 29.88 in 10.0 mi Calm Calm - N/A   Clear
1:55 AM 30.9 °F 25.2 °F 22.6 °F 71% 29.88 in 10.0 mi NNW 5.8 mph - N/A   Clear
2:15 AM 27.7 °F 21.3 °F 21.0 °F 76% 29.88 in 10.0 mi NNW 5.8 mph - N/A   Clear
2:35 AM 29.3 °F - 22.5 °F 76% 29.89 in 10.0 mi Calm Calm - N/A   Clear
2:55 AM 29.1 °F - 21.7 °F 74% 29.89 in 10.0 mi Calm Calm - N/A   Clear
3:15 AM 28.2 °F - 20.3 °F 72% 29.89 in 10.0 mi Calm Calm - N/A   Clear
3:35 AM 28.6 °F 21.5 °F 21.6 °F 75% 29.89 in 10.0 mi NNW 6.9 mph - N/A   Clear
3:55 AM 31.8 °F 28.5 °F 23.0 °F 70% 29.90 in 10.0 mi NW 3.5 mph - N/A   Clear
4:15 AM 29.5 °F 24.5 °F 20.8 °F 70% 29.90 in 10.0 mi SSW 4.6 mph - N/A   Clear
4:35 AM 31.1 °F 25.4 °F 22.1 °F 69% 29.91 in 10.0 mi NNW 5.8 mph - N/A   Clear
4:55 AM 32.0 °F 26.4 °F 23.7 °F 71% 29.91 in 10.0 mi North 5.8 mph - N/A   Clear
5:15 AM 33.1 °F - 23.7 °F 68% 29.91 in 10.0 mi Calm Calm - N/A   Clear
5:35 AM 34.3 °F - 23.9 °F 66% 29.92 in 10.0 mi Calm Calm - N/A   Clear
5:55 AM 30.6 °F 27.1 °F 23.0 °F 74% 29.92 in 10.0 mi WSW 3.5 mph - N/A   Clear
6:15 AM 29.8 °F - 22.6 °F 75% 29.93 in 10.0 mi Calm Calm - N/A   Clear
6:35 AM 30.9 °F 24.3 °F 22.3 °F 70% 29.93 in 10.0 mi North 6.9 mph - N/A   Clear
6:55 AM 31.1 °F 23.1 °F 23.0 °F 72% 29.93 in 10.0 mi North 9.2 mph - N/A   Clear
7:15 AM 32.0 °F 25.6 °F 24.8 °F 75% 29.94 in 10.0 mi North 6.9 mph - N/A   Clear
7:35 AM 34.7 °F 29.6 °F 25.7 °F 70% 29.95 in 10.0 mi North 5.8 mph - N/A   Clear
7:55 AM 37.6 °F 35.1 °F 25.7 °F 62% 29.96 in 10.0 mi NNE 3.5 mph - N/A   Clear
8:15 AM 38.8 °F 33.8 °F 26.6 °F 61% 29.96 in 10.0 mi NNE 6.9 mph - N/A   Clear
8:35 AM 41.2 °F 35.0 °F 27.9 °F 59% 29.97 in 10.0 mi NNE 10.4 mph - N/A   Clear
8:55 AM 43.7 °F 39.7 °F 28.2 °F 54% 29.99 in 10.0 mi NNE 6.9 mph - N/A   Clear
9:15 AM 43.2 °F 39.0 °F 28.4 °F 56% 29.99 in 10.0 mi NNE 6.9 mph - N/A   Clear
9:35 AM 44.6 °F 40.2 °F 28.4 °F 53% 30.00 in 10.0 mi NNE 8.1 mph - N/A   Clear
9:55 AM 43.9 °F 38.3 °F 27.9 °F 53% 30.00 in 10.0 mi NE 10.4 mph - N/A   Clear
10:15 AM 44.1 °F 39.0 °F 28.0 °F 53% 30.00 in 10.0 mi NE 9.2 mph - N/A   Clear
10:35 AM 44.8 °F 39.9 °F 28.2 °F 52% 30.00 in 10.0 mi NE 9.2 mph - N/A   Clear
10:55 AM 45.7 °F 42.0 °F 28.2 °F 51% 30.01 in 10.0 mi NE 6.9 mph - N/A   Clear
11:15 AM 46.0 °F 41.0 °F 27.5 °F 48% 30.00 in 10.0 mi NE 10.4 mph - N/A   Clear
11:35 AM 46.4 °F 40.7 °F 27.3 °F 47% 29.99 in 10.0 mi NNE 12.7 mph - N/A   Scattered Clouds
11:55 AM 47.1 °F - 27.5 °F 47% 29.98 in 10.0 mi NNE 6.9 mph - N/A   Scattered Clouds
12:15 PM 47.8 °F - 27.0 °F 44% 29.98 in 10.0 mi North 9.2 mph - N/A   Scattered Clouds
12:35 PM 48.0 °F - 26.4 °F 43% 29.97 in 10.0 mi NNE 10.4 mph - N/A   Clear
12:55 PM 47.8 °F - 26.2 °F 43% 29.97 in 10.0 mi NNE 8.1 mph - N/A   Clear
1:15 PM 48.0 °F - 26.2 °F 43% 29.98 in 10.0 mi North 9.2 mph - N/A   Clear
1:35 PM 48.4 °F - 25.9 °F 42% 29.97 in 10.0 mi North 9.2 mph - N/A   Clear
1:55 PM 48.7 °F - 25.5 °F 40% 29.97 in 10.0 mi NNE 9.2 mph - N/A   Clear
2:15 PM 49.6 °F - 25.3 °F 39% 29.96 in 10.0 mi NNE 10.4 mph - N/A   Clear
2:35 PM 49.6 °F - 24.4 °F 37% 29.95 in 10.0 mi NE 10.4 mph - N/A   Clear
2:55 PM 49.6 °F - 23.2 °F 35% 29.95 in 10.0 mi NNE 10.4 mph 18.4 mph N/A   Clear
3:15 PM 48.7 °F - 22.1 °F 35% 29.95 in 10.0 mi NNE 12.7 mph 18.4 mph N/A   Clear
3:35 PM 47.8 °F - 23.0 °F 38% 29.96 in 10.0 mi NE 10.4 mph - N/A   Clear
3:55 PM 47.1 °F - 23.4 °F 39% 29.97 in 10.0 mi NNE 11.5 mph - N/A   Clear
4:15 PM 45.3 °F 40.6 °F 23.9 °F 43% 29.98 in 10.0 mi NNE 9.2 mph - N/A   Clear
4:35 PM 43.3 °F 37.7 °F 23.7 °F 46% 29.98 in 10.0 mi NNE 10.4 mph - N/A   Clear
4:55 PM 41.5 °F 35.9 °F 23.7 °F 49% 29.98 in 10.0 mi NNE 9.2 mph - N/A   Clear
5:15 PM 39.4 °F 34.5 °F 23.9 °F 54% 29.98 in 10.0 mi NE 6.9 mph - N/A   Clear
5:35 PM 38.3 °F 33.2 °F 23.9 °F 56% 29.99 in 10.0 mi NE 6.9 mph - N/A   Clear
5:55 PM 36.7 °F 30.5 °F 23.9 °F 60% 30.00 in 10.0 mi NNE 8.1 mph - N/A   Clear
6:15 PM 36.5 °F 29.7 °F 23.9 °F 60% 30.01 in 10.0 mi NNE 9.2 mph - N/A   Clear
6:35 PM 34.7 °F 28.1 °F 23.5 °F 64% 30.02 in 10.0 mi NNE 8.1 mph - N/A   Clear
6:55 PM 33.4 °F 27.3 °F 23.5 °F 67% 30.02 in 10.0 mi NNE 6.9 mph - N/A   Clear
7:15 PM 32.9 °F 26.7 °F 23.5 °F 68% 30.03 in 10.0 mi NE 6.9 mph - N/A   Clear
7:35 PM 32.0 °F 26.4 °F 23.4 °F 70% 30.04 in 10.0 mi NNE 5.8 mph - N/A   Clear
7:55 PM 31.1 °F 25.4 °F 23.4 °F 73% 30.04 in 10.0 mi NNE 5.8 mph - N/A   Clear
8:15 PM 30.6 °F 23.8 °F 23.2 °F 74% 30.04 in 10.0 mi NE 6.9 mph - N/A   Clear
8:35 PM 30.7 °F 23.3 °F 23.5 °F 75% 30.05 in 10.0 mi NE 8.1 mph - N/A   Clear
8:55 PM 31.3 °F 25.6 °F 23.9 °F 74% 30.05 in 10.0 mi NE 5.8 mph - N/A   Clear
9:15 PM 31.3 °F 25.6 °F 23.9 °F 74% 30.05 in 10.0 mi ENE 5.8 mph - N/A   Clear
9:35 PM 30.9 °F 27.5 °F 23.9 °F 75% 30.07 in 10.0 mi NNE 3.5 mph - N/A   Clear
9:55 PM 30.0 °F 24.1 °F 23.7 °F 77% 30.08 in 10.0 mi NNE 5.8 mph - N/A   Clear
10:15 PM 31.5 °F 25.8 °F 24.6 °F 76% 30.09 in 10.0 mi NNE 5.8 mph - N/A   Clear
10:35 PM 31.8 °F 28.5 °F 24.8 °F 75% 30.09 in 10.0 mi NE 3.5 mph - N/A   Clear
10:55 PM 31.6 °F 27.0 °F 25.0 °F 76% 30.11 in 10.0 mi NE 4.6 mph - N/A   Clear
11:15 PM 31.1 °F 25.4 °F 24.8 °F 77% 30.11 in 10.0 mi NE 5.8 mph - N/A   Clear
11:35 PM 31.5 °F 26.8 °F 25.2 °F 78% 30.11 in 10.0 mi NE 4.6 mph - N/A   Clear
11:55 PM 31.5 °F 24.9 °F 25.2 °F 78% 30.12 in 10.0 mi NNE 6.9 mph - N/A   Clear